Terminal Aerodrome Forecast
Issued by NWS Raleigh/Durham, NC

Home | Current Version | Previous Version | Text Only | Print | Product List | Glossary On
Versions: 1 2 3 4 5 6 7 8 9 10 11 12 13 14 15 16 17 18 19 20 21 22 23 24 25 26 27 28 29 30 31 32 33 34 35 36 37 38 39 40 41 42 43 44 45 46 47 48 49 50
000
FTUS42 KRAH 052007 AAE
TAFFAY
TAF AMD
KFAY 052007Z 0520/0618 01020G35KT 2SM -RA BR BKN009 OVC025
      WS012/23035KT
     FM052300 04010KT 3SM -RA BR OVC004
     FM060600 02015KT 3SM BR OVC010
     FM061200 02013KT P6SM SCT015=

USA.gov is the U.S. government's official web portal to all federal, state and local government web resources and services.